Sunnyside, UT (84539)

2:35 AM MDT on July 28, 2014 (GMT -0600)
Carbon County (KPUC) Elev 5955 ft | 39.61 °N, 110.75 °W | Change Station

Current weather conditions updated 42 minutes ago

Clear
Clear
75 °F
Feels Like 75 °F
N
5
Wind Variable Wind from ENE

Today is forecast to be Much Cooler than yesterday. Isolated thunderstorms.

Today
High -- | Low -- °F
--% Chance of Precip.
Yesterday
High -- | Low -- °F
Precip. -- in
6:17 AM 8:38 PM
New Moon, 2% visible
Pressure 29.99 in
Visibility 10.0 miles
Clouds Clear
Dew Point 45 °F
Humidity 34%
Rainfall 0.00 in
Snow Depth Not available.
UV 0 out of 12
Pollen 6.70 out of 12
Air Quality Not available.
Flu Activity Not available.
METAR KPUC 280753Z AUTO 07004KT 10SM CLR 24/07 A3032 RMK AO2 SLP153 T02390072

More Conditions Fewer Conditions

Pressure 29.99 in
Visibility 10.0 miles
Clouds Clear
Dew Point 45 °F
Humidity 34%
Rainfall 0.00 in
Snow Depth Not available.
UV 0 out of 12
Pollen 6.70 out of 12
Air Quality Not available.
Flu Activity Not available.
METAR KPUC 280753Z AUTO 07004KT 10SM CLR 24/07 A3032 RMK AO2 SLP153 T02390072

More Conditions Fewer Conditions

10-Day Weather Forecast

Almanac

Astronomy

Jul. 28, 2014 Rise Set
Actual Time 6:17 AM MDT 8:38 PM MDT
Civil Twilight 5:47 AM MDT 9:08 PM MDT
Nautical Twilight 5:09 AM MDT 9:45 PM MDT
Astronomical Twilight 4:28 AM MDT 10:26 PM MDT
Moon 8:01 AM MDT 9:22 PM MDT
Length of Visible Light 15h 21m
Length of Day
14h 20m
Tomorrow will be 1m 50s shorter.
New Moon, 2% of the Moon is Illuminated
Today
New Moon
Aug 3
First Quarter
Aug 10
Full
Aug 17
Last Quarter
Aug 25
New

Today's Extremes

State Highs State Lows

Community

WunderPhotos

Upload Photos

1,738,294 photos uploaded!

Nearby

Snow Depth

Station Depth Elevation
Seeley Creek 0 in 10000 ft
Strawberry Divide 0 in 8400 ft
Currant Creek 0 in 8000 ft
Daniels-Strawberry 0 in 8000 ft
Rock Creek 0 in 7900 ft

Earthquake Activity

City Distance Mag. Time & Date
No recent earthquake activity has been reported nearby.
Minimum magnitude displayed is 2.5.

Coastal Water Temperatures

Place Temperature
No Stations Reporting

Nearby Weather Stations

Station Location Temp. Heat Index Dew Point Humidity Wind Precip. Elev Updated Type
HADS NUTTERS RANCH NEAR PRICE 28NE UT, Duchesne, UT 70 °F - 45 °F 40% SSW  at  1 mph 0.00 in / hr 5790 ft 1:15 AM MDT MADIS
MesoWest PRICE , Wellington, UT 77 °F 78 °F 42 °F 28% SSW  at  13 mph 0.00 in / hr 5646 ft 12:00 AM MDT MADIS
MesoWest MOUNDS , Wellington, UT 77 °F 75 °F - - North  at  - 0.00 in / hr 5383 ft 1:10 AM MDT MADIS
MesoWest WDSIDE , Green River, UT 83 °F 81 °F - - North  at  - 0.00 in / hr 4675 ft 1:25 AM MDT MADIS
RAWS BRUIN POINT UT, Sunnyside, UT 55 °F - 43 °F 65% SSW  at  4 mph 0.00 in / hr 9754 ft 1:40 AM MDT MADIS

Show More Stations Show Fewer Stations